sensor_id;sensor_type;location;lat;lon;timestamp;temperature;humidity
21306;DHT22;10812;51.838;5.838;2023-07-28T00:02:03;17.80;99.90
21306;DHT22;10812;51.838;5.838;2023-07-28T00:04:33;17.80;99.90
21306;DHT22;10812;51.838;5.838;2023-07-28T00:07:01;17.80;99.90
21306;DHT22;10812;51.838;5.838;2023-07-28T00:09:31;17.80;99.90
21306;DHT22;10812;51.838;5.838;2023-07-28T00:11:59;17.80;99.90
21306;DHT22;10812;51.838;5.838;2023-07-28T00:14:28;17.80;99.90
21306;DHT22;10812;51.838;5.838;2023-07-28T00:16:57;17.80;99.90
21306;DHT22;10812;51.838;5.838;2023-07-28T00:19:25;17.80;99.90
21306;DHT22;10812;51.838;5.838;2023-07-28T00:21:54;17.80;99.90
21306;DHT22;10812;51.838;5.838;2023-07-28T00:24:23;17.80;99.90
21306;DHT22;10812;51.838;5.838;2023-07-28T00:26:52;17.80;99.90
21306;DHT22;10812;51.838;5.838;2023-07-28T00:29:20;17.80;99.90
21306;DHT22;10812;51.838;5.838;2023-07-28T00:31:48;17.80;99.90
21306;DHT22;10812;51.838;5.838;2023-07-28T00:34:17;17.80;99.90
21306;DHT22;10812;51.838;5.838;2023-07-28T00:36:45;17.80;99.90
21306;DHT22;10812;51.838;5.838;2023-07-28T00:39:13;17.80;99.90
21306;DHT22;10812;51.838;5.838;2023-07-28T00:41:41;17.80;99.90
21306;DHT22;10812;51.838;5.838;2023-07-28T00:44:10;17.80;99.90
21306;DHT22;10812;51.838;5.838;2023-07-28T00:46:39;17.80;99.90
21306;DHT22;10812;51.838;5.838;2023-07-28T00:49:07;17.80;99.90
21306;DHT22;10812;51.838;5.838;2023-07-28T00:51:35;17.80;99.90
21306;DHT22;10812;51.838;5.838;2023-07-28T00:54:05;17.80;99.90
21306;DHT22;10812;51.838;5.838;2023-07-28T00:56:33;17.80;99.90
21306;DHT22;10812;51.838;5.838;2023-07-28T00:59:01;17.80;99.90
21306;DHT22;10812;51.838;5.838;2023-07-28T01:01:31;17.70;99.90
21306;DHT22;10812;51.838;5.838;2023-07-28T01:03:59;17.80;99.90
21306;DHT22;10812;51.838;5.838;2023-07-28T01:06:35;17.80;99.90
21306;DHT22;10812;51.838;5.838;2023-07-28T01:09:11;17.80;99.90
21306;DHT22;10812;51.838;5.838;2023-07-28T01:11:53;17.80;99.90
21306;DHT22;10812;51.838;5.838;2023-07-28T01:14:21;17.80;99.90
21306;DHT22;10812;51.838;5.838;2023-07-28T01:16:50;17.80;99.90
21306;DHT22;10812;51.838;5.838;2023-07-28T01:19:20;17.70;99.90
21306;DHT22;10812;51.838;5.838;2023-07-28T01:21:56;17.80;99.90
21306;DHT22;10812;51.838;5.838;2023-07-28T01:24:33;17.80;99.90
21306;DHT22;10812;51.838;5.838;2023-07-28T01:27:07;17.80;99.90
21306;DHT22;10812;51.838;5.838;2023-07-28T01:29:36;17.80;99.90
21306;DHT22;10812;51.838;5.838;2023-07-28T01:32:05;17.80;99.90
21306;DHT22;10812;51.838;5.838;2023-07-28T01:34:33;17.80;99.90
21306;DHT22;10812;51.838;5.838;2023-07-28T01:37:01;17.80;99.90
21306;DHT22;10812;51.838;5.838;2023-07-28T01:39:29;17.80;99.90
21306;DHT22;10812;51.838;5.838;2023-07-28T01:41:57;17.80;99.90
21306;DHT22;10812;51.838;5.838;2023-07-28T01:44:27;17.80;99.90
21306;DHT22;10812;51.838;5.838;2023-07-28T01:46:55;17.80;99.90
21306;DHT22;10812;51.838;5.838;2023-07-28T01:49:23;17.80;99.90
21306;DHT22;10812;51.838;5.838;2023-07-28T01:51:51;17.80;99.90
21306;DHT22;10812;51.838;5.838;2023-07-28T01:54:19;17.80;99.90
21306;DHT22;10812;51.838;5.838;2023-07-28T01:56:47;17.80;99.90
21306;DHT22;10812;51.838;5.838;2023-07-28T01:59:15;17.80;99.90
21306;DHT22;10812;51.838;5.838;2023-07-28T02:01:45;17.80;99.90
21306;DHT22;10812;51.838;5.838;2023-07-28T02:04:13;17.80;99.90
21306;DHT22;10812;51.838;5.838;2023-07-28T02:06:42;17.80;99.90
21306;DHT22;10812;51.838;5.838;2023-07-28T02:09:11;17.90;99.90
21306;DHT22;10812;51.838;5.838;2023-07-28T02:11:39;17.80;99.90
21306;DHT22;10812;51.838;5.838;2023-07-28T02:14:06;17.80;99.90
21306;DHT22;10812;51.838;5.838;2023-07-28T02:16:34;17.80;99.90
21306;DHT22;10812;51.838;5.838;2023-07-28T02:19:04;17.80;99.90
21306;DHT22;10812;51.838;5.838;2023-07-28T02:21:32;17.80;99.90
21306;DHT22;10812;51.838;5.838;2023-07-28T02:24:00;17.80;99.90
21306;DHT22;10812;51.838;5.838;2023-07-28T02:26:28;17.80;99.90
21306;DHT22;10812;51.838;5.838;2023-07-28T02:28:57;17.70;99.90
21306;DHT22;10812;51.838;5.838;2023-07-28T02:31:25;17.80;99.90
21306;DHT22;10812;51.838;5.838;2023-07-28T02:33:53;17.80;99.90
21306;DHT22;10812;51.838;5.838;2023-07-28T02:36:22;17.80;99.90
21306;DHT22;10812;51.838;5.838;2023-07-28T02:38:51;17.80;99.90
21306;DHT22;10812;51.838;5.838;2023-07-28T02:41:18;17.80;99.90
21306;DHT22;10812;51.838;5.838;2023-07-28T02:43:47;17.80;99.90
21306;DHT22;10812;51.838;5.838;2023-07-28T02:46:15;17.80;99.90
21306;DHT22;10812;51.838;5.838;2023-07-28T02:48:43;17.80;99.90
21306;DHT22;10812;51.838;5.838;2023-07-28T02:51:11;17.80;99.90
21306;DHT22;10812;51.838;5.838;2023-07-28T02:53:40;17.80;99.90
21306;DHT22;10812;51.838;5.838;2023-07-28T02:56:08;17.80;99.90
21306;DHT22;10812;51.838;5.838;2023-07-28T02:58:37;17.80;99.90
21306;DHT22;10812;51.838;5.838;2023-07-28T03:06:22;17.80;99.90
21306;DHT22;10812;51.838;5.838;2023-07-28T03:08:51;17.80;99.90
21306;DHT22;10812;51.838;5.838;2023-07-28T03:11:20;17.80;99.90
21306;DHT22;10812;51.838;5.838;2023-07-28T03:13:48;17.80;99.90
21306;DHT22;10812;51.838;5.838;2023-07-28T03:19:56;17.80;99.90
21306;DHT22;10812;51.838;5.838;2023-07-28T03:22:25;17.80;99.90
21306;DHT22;10812;51.838;5.838;2023-07-28T03:36:15;17.90;99.90
21306;DHT22;10812;51.838;5.838;2023-07-28T03:38:44;17.90;99.90
21306;DHT22;10812;51.838;5.838;2023-07-28T03:41:12;17.80;99.90
21306;DHT22;10812;51.838;5.838;2023-07-28T03:51:16;17.90;99.90
21306;DHT22;10812;51.838;5.838;2023-07-28T03:53:44;17.90;99.90
21306;DHT22;10812;51.838;5.838;2023-07-28T03:56:12;17.90;99.90
21306;DHT22;10812;51.838;5.838;2023-07-28T03:58:40;17.90;99.90
21306;DHT22;10812;51.838;5.838;2023-07-28T04:01:08;17.90;99.90
21306;DHT22;10812;51.838;5.838;2023-07-28T04:03:37;17.90;99.90
21306;DHT22;10812;51.838;5.838;2023-07-28T04:06:09;17.90;99.90
21306;DHT22;10812;51.838;5.838;2023-07-28T04:08:39;17.90;99.90
21306;DHT22;10812;51.838;5.838;2023-07-28T04:11:07;17.90;99.90
21306;DHT22;10812;51.838;5.838;2023-07-28T04:13:35;17.90;99.90
21306;DHT22;10812;51.838;5.838;2023-07-28T04:16:04;17.90;99.90
21306;DHT22;10812;51.838;5.838;2023-07-28T04:18:32;17.90;99.90
21306;DHT22;10812;51.838;5.838;2023-07-28T04:21:00;17.90;99.90
21306;DHT22;10812;51.838;5.838;2023-07-28T04:23:28;17.90;99.90
21306;DHT22;10812;51.838;5.838;2023-07-28T04:25:58;17.90;99.90
21306;DHT22;10812;51.838;5.838;2023-07-28T04:28:26;18.00;99.90
21306;DHT22;10812;51.838;5.838;2023-07-28T04:30:54;18.00;99.90
21306;DHT22;10812;51.838;5.838;2023-07-28T04:33:25;18.00;99.90
21306;DHT22;10812;51.838;5.838;2023-07-28T04:35:53;17.90;99.90
21306;DHT22;10812;51.838;5.838;2023-07-28T04:38:22;18.00;99.90
21306;DHT22;10812;51.838;5.838;2023-07-28T04:40:50;18.00;99.90
21306;DHT22;10812;51.838;5.838;2023-07-28T04:43:19;18.00;99.90
21306;DHT22;10812;51.838;5.838;2023-07-28T04:48:59;18.00;99.90
21306;DHT22;10812;51.838;5.838;2023-07-28T04:51:29;18.00;99.90
21306;DHT22;10812;51.838;5.838;2023-07-28T04:53:57;18.00;99.90
21306;DHT22;10812;51.838;5.838;2023-07-28T04:56:25;18.00;99.90
21306;DHT22;10812;51.838;5.838;2023-07-28T05:02:19;18.00;99.90
21306;DHT22;10812;51.838;5.838;2023-07-28T05:04:47;18.10;99.90
21306;DHT22;10812;51.838;5.838;2023-07-28T05:07:15;18.10;99.90
21306;DHT22;10812;51.838;5.838;2023-07-28T05:24:28;18.10;99.90
21306;DHT22;10812;51.838;5.838;2023-07-28T05:26:56;18.10;99.90
21306;DHT22;10812;51.838;5.838;2023-07-28T05:29:24;18.10;99.90
21306;DHT22;10812;51.838;5.838;2023-07-28T05:31:52;18.10;99.90
21306;DHT22;10812;51.838;5.838;2023-07-28T05:34:21;18.20;99.90
21306;DHT22;10812;51.838;5.838;2023-07-28T05:36:49;18.20;99.90
21306;DHT22;10812;51.838;5.838;2023-07-28T05:39:17;18.20;99.90
21306;DHT22;10812;51.838;5.838;2023-07-28T05:41:46;18.20;99.90
21306;DHT22;10812;51.838;5.838;2023-07-28T05:44:15;18.20;99.90
21306;DHT22;10812;51.838;5.838;2023-07-28T05:46:43;18.20;99.90
21306;DHT22;10812;51.838;5.838;2023-07-28T05:49:12;18.20;99.90
21306;DHT22;10812;51.838;5.838;2023-07-28T05:51:40;18.20;99.90
21306;DHT22;10812;51.838;5.838;2023-07-28T05:54:08;18.30;99.90
21306;DHT22;10812;51.838;5.838;2023-07-28T05:56:36;18.30;99.90
21306;DHT22;10812;51.838;5.838;2023-07-28T05:59:06;18.30;99.90
21306;DHT22;10812;51.838;5.838;2023-07-28T06:01:34;18.30;99.90
21306;DHT22;10812;51.838;5.838;2023-07-28T06:04:03;18.40;99.90
21306;DHT22;10812;51.838;5.838;2023-07-28T06:06:31;18.40;99.90
21306;DHT22;10812;51.838;5.838;2023-07-28T06:08:59;18.40;99.90
21306;DHT22;10812;51.838;5.838;2023-07-28T06:11:27;18.40;99.90
21306;DHT22;10812;51.838;5.838;2023-07-28T06:13:56;18.50;99.90
21306;DHT22;10812;51.838;5.838;2023-07-28T06:16:26;18.50;99.90
21306;DHT22;10812;51.838;5.838;2023-07-28T06:18:54;18.50;99.90
21306;DHT22;10812;51.838;5.838;2023-07-28T06:21:22;18.50;99.90
21306;DHT22;10812;51.838;5.838;2023-07-28T06:23:51;18.50;99.90
21306;DHT22;10812;51.838;5.838;2023-07-28T06:26:19;18.50;99.90
21306;DHT22;10812;51.838;5.838;2023-07-28T06:28:47;18.50;99.90
21306;DHT22;10812;51.838;5.838;2023-07-28T06:31:15;18.50;99.90
21306;DHT22;10812;51.838;5.838;2023-07-28T06:33:44;18.60;99.90
21306;DHT22;10812;51.838;5.838;2023-07-28T06:36:13;18.60;99.90
21306;DHT22;10812;51.838;5.838;2023-07-28T06:38:41;18.60;99.90
21306;DHT22;10812;51.838;5.838;2023-07-28T06:41:11;18.60;99.90
21306;DHT22;10812;51.838;5.838;2023-07-28T06:43:39;18.60;99.90
21306;DHT22;10812;51.838;5.838;2023-07-28T06:46:08;18.60;99.90
21306;DHT22;10812;51.838;5.838;2023-07-28T06:48:36;18.60;99.90
21306;DHT22;10812;51.838;5.838;2023-07-28T06:51:05;18.60;99.90
21306;DHT22;10812;51.838;5.838;2023-07-28T06:53:33;18.60;99.90
21306;DHT22;10812;51.838;5.838;2023-07-28T06:56:02;18.70;99.90
21306;DHT22;10812;51.838;5.838;2023-07-28T06:58:30;18.70;99.90
21306;DHT22;10812;51.838;5.838;2023-07-28T07:00:59;18.80;99.90
21306;DHT22;10812;51.838;5.838;2023-07-28T07:03:27;18.80;99.90
21306;DHT22;10812;51.838;5.838;2023-07-28T07:05:55;18.80;99.90
21306;DHT22;10812;51.838;5.838;2023-07-28T07:08:24;18.90;99.90
21306;DHT22;10812;51.838;5.838;2023-07-28T07:10:53;18.90;99.90
21306;DHT22;10812;51.838;5.838;2023-07-28T07:13:22;18.90;99.90
21306;DHT22;10812;51.838;5.838;2023-07-28T07:15:50;19.00;99.90
21306;DHT22;10812;51.838;5.838;2023-07-28T07:18:18;19.00;99.90
21306;DHT22;10812;51.838;5.838;2023-07-28T07:20:46;19.00;99.90
21306;DHT22;10812;51.838;5.838;2023-07-28T07:23:14;19.00;99.90
21306;DHT22;10812;51.838;5.838;2023-07-28T07:25:44;19.10;99.90
21306;DHT22;10812;51.838;5.838;2023-07-28T07:28:12;19.10;99.90
21306;DHT22;10812;51.838;5.838;2023-07-28T07:30:40;19.20;99.90
21306;DHT22;10812;51.838;5.838;2023-07-28T07:33:08;19.10;99.90
21306;DHT22;10812;51.838;5.838;2023-07-28T07:35:36;19.20;99.90
21306;DHT22;10812;51.838;5.838;2023-07-28T07:38:05;19.30;99.90
21306;DHT22;10812;51.838;5.838;2023-07-28T07:48:27;19.40;99.90
21306;DHT22;10812;51.838;5.838;2023-07-28T07:50:55;19.50;99.90
21306;DHT22;10812;51.838;5.838;2023-07-28T07:53:23;19.50;99.90
21306;DHT22;10812;51.838;5.838;2023-07-28T07:55:51;19.50;99.90
21306;DHT22;10812;51.838;5.838;2023-07-28T07:58:19;19.50;99.90
21306;DHT22;10812;51.838;5.838;2023-07-28T08:00:47;19.60;99.90
21306;DHT22;10812;51.838;5.838;2023-07-28T08:03:16;19.70;99.90
21306;DHT22;10812;51.838;5.838;2023-07-28T08:05:45;19.70;99.90
21306;DHT22;10812;51.838;5.838;2023-07-28T08:08:14;19.80;99.90
21306;DHT22;10812;51.838;5.838;2023-07-28T08:10:44;19.90;99.90
21306;DHT22;10812;51.838;5.838;2023-07-28T08:13:12;20.00;99.90
21306;DHT22;10812;51.838;5.838;2023-07-28T08:15:40;20.10;99.90
21306;DHT22;10812;51.838;5.838;2023-07-28T08:18:08;20.20;99.90
21306;DHT22;10812;51.838;5.838;2023-07-28T08:20:36;20.20;99.90
21306;DHT22;10812;51.838;5.838;2023-07-28T08:23:06;20.20;99.90
21306;DHT22;10812;51.838;5.838;2023-07-28T08:25:35;20.30;99.90
21306;DHT22;10812;51.838;5.838;2023-07-28T08:28:04;20.40;99.90
21306;DHT22;10812;51.838;5.838;2023-07-28T08:30:32;20.50;99.90
21306;DHT22;10812;51.838;5.838;2023-07-28T08:33:00;20.60;99.90
21306;DHT22;10812;51.838;5.838;2023-07-28T08:35:29;20.70;99.90
21306;DHT22;10812;51.838;5.838;2023-07-28T08:37:57;20.90;99.90
21306;DHT22;10812;51.838;5.838;2023-07-28T08:40:27;21.00;99.90
21306;DHT22;10812;51.838;5.838;2023-07-28T08:42:55;21.10;99.90
21306;DHT22;10812;51.838;5.838;2023-07-28T08:45:23;21.10;99.90
21306;DHT22;10812;51.838;5.838;2023-07-28T08:47:52;21.10;99.90
21306;DHT22;10812;51.838;5.838;2023-07-28T08:50:20;21.30;99.90
21306;DHT22;10812;51.838;5.838;2023-07-28T08:52:49;21.40;99.90
21306;DHT22;10812;51.838;5.838;2023-07-28T08:55:18;21.50;99.90
21306;DHT22;10812;51.838;5.838;2023-07-28T08:57:48;21.70;99.90
21306;DHT22;10812;51.838;5.838;2023-07-28T09:00:16;21.80;99.90
21306;DHT22;10812;51.838;5.838;2023-07-28T09:02:44;21.90;99.90
21306;DHT22;10812;51.838;5.838;2023-07-28T09:05:18;22.20;99.90
21306;DHT22;10812;51.838;5.838;2023-07-28T09:07:47;22.30;99.90
21306;DHT22;10812;51.838;5.838;2023-07-28T09:10:15;22.40;99.90
21306;DHT22;10812;51.838;5.838;2023-07-28T09:12:49;22.40;99.90
21306;DHT22;10812;51.838;5.838;2023-07-28T09:15:18;22.40;99.90
21306;DHT22;10812;51.838;5.838;2023-07-28T09:17:47;22.40;99.90
21306;DHT22;10812;51.838;5.838;2023-07-28T09:20:16;22.50;99.90
21306;DHT22;10812;51.838;5.838;2023-07-28T09:22:44;22.60;99.90
21306;DHT22;10812;51.838;5.838;2023-07-28T09:25:14;22.80;99.90
21306;DHT22;10812;51.838;5.838;2023-07-28T09:27:51;23.00;99.90
21306;DHT22;10812;51.838;5.838;2023-07-28T09:30:20;23.30;99.90
21306;DHT22;10812;51.838;5.838;2023-07-28T09:32:50;23.60;99.90
21306;DHT22;10812;51.838;5.838;2023-07-28T09:35:20;24.10;99.90
21306;DHT22;10812;51.838;5.838;2023-07-28T09:37:50;24.70;99.90
21306;DHT22;10812;51.838;5.838;2023-07-28T09:40:21;24.70;99.90
21306;DHT22;10812;51.838;5.838;2023-07-28T09:42:51;24.50;99.90
21306;DHT22;10812;51.838;5.838;2023-07-28T09:45:22;24.20;99.90
21306;DHT22;10812;51.838;5.838;2023-07-28T09:47:56;24.00;99.90
21306;DHT22;10812;51.838;5.838;2023-07-28T09:50:27;23.80;99.90
21306;DHT22;10812;51.838;5.838;2023-07-28T09:52:58;23.80;99.90
21306;DHT22;10812;51.838;5.838;2023-07-28T09:55:29;23.70;99.90
21306;DHT22;10812;51.838;5.838;2023-07-28T09:58:03;23.70;99.90
21306;DHT22;10812;51.838;5.838;2023-07-28T10:00:33;23.70;99.90
21306;DHT22;10812;51.838;5.838;2023-07-28T10:03:02;24.20;99.90
21306;DHT22;10812;51.838;5.838;2023-07-28T10:05:32;25.10;99.90
21306;DHT22;10812;51.838;5.838;2023-07-28T10:08:01;25.70;99.90
21306;DHT22;10812;51.838;5.838;2023-07-28T10:10:30;26.00;99.90
21306;DHT22;10812;51.838;5.838;2023-07-28T10:13:00;25.60;99.90
21306;DHT22;10812;51.838;5.838;2023-07-28T10:15:31;25.60;99.90
21306;DHT22;10812;51.838;5.838;2023-07-28T10:18:00;26.30;99.90
21306;DHT22;10812;51.838;5.838;2023-07-28T10:20:34;26.70;99.90
21306;DHT22;10812;51.838;5.838;2023-07-28T10:23:04;26.80;99.90
21306;DHT22;10812;51.838;5.838;2023-07-28T10:25:33;27.30;99.90
21306;DHT22;10812;51.838;5.838;2023-07-28T10:28:04;27.60;99.90
21306;DHT22;10812;51.838;5.838;2023-07-28T10:30:37;27.60;99.90
21306;DHT22;10812;51.838;5.838;2023-07-28T10:33:06;27.70;99.90
21306;DHT22;10812;51.838;5.838;2023-07-28T10:35:34;27.50;99.90
21306;DHT22;10812;51.838;5.838;2023-07-28T10:38:33;27.40;99.90
21306;DHT22;10812;51.838;5.838;2023-07-28T10:41:08;27.20;99.90
21306;DHT22;10812;51.838;5.838;2023-07-28T10:43:38;26.70;99.90
21306;DHT22;10812;51.838;5.838;2023-07-28T10:46:08;26.20;99.90
21306;DHT22;10812;51.838;5.838;2023-07-28T10:48:37;25.80;99.90
21306;DHT22;10812;51.838;5.838;2023-07-28T10:51:09;25.60;99.90
21306;DHT22;10812;51.838;5.838;2023-07-28T10:53:38;25.60;99.90
21306;DHT22;10812;51.838;5.838;2023-07-28T10:56:06;25.60;99.90
21306;DHT22;10812;51.838;5.838;2023-07-28T10:58:39;25.60;99.90
21306;DHT22;10812;51.838;5.838;2023-07-28T11:01:07;25.50;99.90
21306;DHT22;10812;51.838;5.838;2023-07-28T11:03:35;25.30;99.90
21306;DHT22;10812;51.838;5.838;2023-07-28T11:06:04;25.30;99.90
21306;DHT22;10812;51.838;5.838;2023-07-28T11:08:33;25.30;99.90
21306;DHT22;10812;51.838;5.838;2023-07-28T11:11:04;25.30;99.90
21306;DHT22;10812;51.838;5.838;2023-07-28T11:13:32;25.50;99.90
21306;DHT22;10812;51.838;5.838;2023-07-28T11:16:08;25.40;99.90
21306;DHT22;10812;51.838;5.838;2023-07-28T11:18:38;25.60;99.90
21306;DHT22;10812;51.838;5.838;2023-07-28T11:21:06;25.60;99.90
21306;DHT22;10812;51.838;5.838;2023-07-28T11:23:34;25.70;99.90
21306;DHT22;10812;51.838;5.838;2023-07-28T11:26:02;25.70;99.90
21306;DHT22;10812;51.838;5.838;2023-07-28T11:28:33;25.90;99.90
21306;DHT22;10812;51.838;5.838;2023-07-28T11:31:02;26.10;99.90
21306;DHT22;10812;51.838;5.838;2023-07-28T11:33:32;26.30;99.90
21306;DHT22;10812;51.838;5.838;2023-07-28T11:36:00;26.50;99.90
21306;DHT22;10812;51.838;5.838;2023-07-28T11:38:28;26.70;99.90
21306;DHT22;10812;51.838;5.838;2023-07-28T11:40:57;26.80;99.90
21306;DHT22;10812;51.838;5.838;2023-07-28T11:43:26;26.90;99.90
21306;DHT22;10812;51.838;5.838;2023-07-28T11:45:54;27.00;99.90
21306;DHT22;10812;51.838;5.838;2023-07-28T11:48:22;26.90;99.90
21306;DHT22;10812;51.838;5.838;2023-07-28T11:50:51;26.70;99.90
21306;DHT22;10812;51.838;5.838;2023-07-28T11:53:22;26.50;99.90
21306;DHT22;10812;51.838;5.838;2023-07-28T11:55:50;26.20;99.90
21306;DHT22;10812;51.838;5.838;2023-07-28T11:58:19;26.30;99.90
21306;DHT22;10812;51.838;5.838;2023-07-28T12:00:51;26.20;99.90
21306;DHT22;10812;51.838;5.838;2023-07-28T12:03:19;26.50;99.90
21306;DHT22;10812;51.838;5.838;2023-07-28T12:06:04;26.90;99.90
21306;DHT22;10812;51.838;5.838;2023-07-28T12:08:39;26.90;99.90
21306;DHT22;10812;51.838;5.838;2023-07-28T12:11:12;27.00;99.90
21306;DHT22;10812;51.838;5.838;2023-07-28T12:13:49;27.00;99.90
21306;DHT22;10812;51.838;5.838;2023-07-28T12:16:32;26.90;99.90
21306;DHT22;10812;51.838;5.838;2023-07-28T12:19:02;26.70;99.90
21306;DHT22;10812;51.838;5.838;2023-07-28T12:21:33;26.60;99.90
21306;DHT22;10812;51.838;5.838;2023-07-28T12:24:01;26.40;99.90
21306;DHT22;10812;51.838;5.838;2023-07-28T12:26:33;26.30;99.90
21306;DHT22;10812;51.838;5.838;2023-07-28T12:29:06;26.20;99.90
21306;DHT22;10812;51.838;5.838;2023-07-28T12:31:38;26.20;99.90
21306;DHT22;10812;51.838;5.838;2023-07-28T12:34:09;26.10;99.90
21306;DHT22;10812;51.838;5.838;2023-07-28T12:36:52;26.00;99.90
21306;DHT22;10812;51.838;5.838;2023-07-28T12:39:21;25.90;99.90
21306;DHT22;10812;51.838;5.838;2023-07-28T12:41:53;26.00;99.90
21306;DHT22;10812;51.838;5.838;2023-07-28T12:44:24;25.70;99.90
21306;DHT22;10812;51.838;5.838;2023-07-28T12:46:55;25.60;99.90
21306;DHT22;10812;51.838;5.838;2023-07-28T12:49:23;25.60;99.90
21306;DHT22;10812;51.838;5.838;2023-07-28T12:51:52;25.40;99.90
21306;DHT22;10812;51.838;5.838;2023-07-28T12:54:23;25.40;99.90
21306;DHT22;10812;51.838;5.838;2023-07-28T12:56:52;25.40;99.90
21306;DHT22;10812;51.838;5.838;2023-07-28T12:59:37;25.30;99.90
21306;DHT22;10812;51.838;5.838;2023-07-28T13:02:08;25.30;99.90
21306;DHT22;10812;51.838;5.838;2023-07-28T13:04:37;25.10;99.90
21306;DHT22;10812;51.838;5.838;2023-07-28T13:07:06;25.00;99.90
21306;DHT22;10812;51.838;5.838;2023-07-28T13:09:37;25.00;99.90
21306;DHT22;10812;51.838;5.838;2023-07-28T13:12:08;25.00;99.90
21306;DHT22;10812;51.838;5.838;2023-07-28T13:14:40;25.20;99.90
21306;DHT22;10812;51.838;5.838;2023-07-28T13:17:08;25.20;99.90
21306;DHT22;10812;51.838;5.838;2023-07-28T13:19:36;25.30;99.90
21306;DHT22;10812;51.838;5.838;2023-07-28T13:22:05;25.40;99.90
21306;DHT22;10812;51.838;5.838;2023-07-28T13:24:37;25.40;99.90
21306;DHT22;10812;51.838;5.838;2023-07-28T13:27:05;25.30;99.90
21306;DHT22;10812;51.838;5.838;2023-07-28T13:29:33;25.40;99.90
21306;DHT22;10812;51.838;5.838;2023-07-28T13:32:01;25.50;99.90
21306;DHT22;10812;51.838;5.838;2023-07-28T13:34:29;25.70;99.90
21306;DHT22;10812;51.838;5.838;2023-07-28T13:36:58;25.70;99.90
21306;DHT22;10812;51.838;5.838;2023-07-28T13:39:27;25.90;99.90
21306;DHT22;10812;51.838;5.838;2023-07-28T13:41:55;25.90;99.90
21306;DHT22;10812;51.838;5.838;2023-07-28T13:44:23;25.90;99.90
21306;DHT22;10812;51.838;5.838;2023-07-28T13:46:58;25.90;99.90
21306;DHT22;10812;51.838;5.838;2023-07-28T13:49:26;26.00;99.90
21306;DHT22;10812;51.838;5.838;2023-07-28T13:51:54;26.20;99.90
21306;DHT22;10812;51.838;5.838;2023-07-28T13:54:27;26.20;99.90
21306;DHT22;10812;51.838;5.838;2023-07-28T13:56:55;26.20;99.90
21306;DHT22;10812;51.838;5.838;2023-07-28T13:59:26;25.80;99.90
21306;DHT22;10812;51.838;5.838;2023-07-28T14:01:54;25.80;99.90
21306;DHT22;10812;51.838;5.838;2023-07-28T14:04:24;25.70;99.90
21306;DHT22;10812;51.838;5.838;2023-07-28T14:06:55;25.50;99.90
21306;DHT22;10812;51.838;5.838;2023-07-28T14:09:23;25.40;99.90
21306;DHT22;10812;51.838;5.838;2023-07-28T14:11:53;25.40;99.90
21306;DHT22;10812;51.838;5.838;2023-07-28T14:14:21;25.40;99.90
21306;DHT22;10812;51.838;5.838;2023-07-28T14:16:49;25.60;99.90
21306;DHT22;10812;51.838;5.838;2023-07-28T14:19:17;25.60;99.90
21306;DHT22;10812;51.838;5.838;2023-07-28T14:21:45;25.60;99.90
21306;DHT22;10812;51.838;5.838;2023-07-28T14:24:13;25.60;99.90
21306;DHT22;10812;51.838;5.838;2023-07-28T14:26:41;25.90;99.90
21306;DHT22;10812;51.838;5.838;2023-07-28T14:29:11;26.00;99.90
21306;DHT22;10812;51.838;5.838;2023-07-28T14:31:40;26.10;99.90
21306;DHT22;10812;51.838;5.838;2023-07-28T14:34:08;26.20;99.90
21306;DHT22;10812;51.838;5.838;2023-07-28T14:36:36;26.20;99.90
21306;DHT22;10812;51.838;5.838;2023-07-28T14:39:04;26.40;99.90
21306;DHT22;10812;51.838;5.838;2023-07-28T14:41:33;26.20;99.90
21306;DHT22;10812;51.838;5.838;2023-07-28T14:44:01;26.10;99.90
21306;DHT22;10812;51.838;5.838;2023-07-28T14:46:31;25.90;99.90
21306;DHT22;10812;51.838;5.838;2023-07-28T14:48:59;25.90;99.90
21306;DHT22;10812;51.838;5.838;2023-07-28T14:51:27;26.00;99.90
21306;DHT22;10812;51.838;5.838;2023-07-28T14:53:55;26.10;99.90
21306;DHT22;10812;51.838;5.838;2023-07-28T14:56:23;26.20;99.90
21306;DHT22;10812;51.838;5.838;2023-07-28T14:58:52;26.20;99.90
21306;DHT22;10812;51.838;5.838;2023-07-28T15:01:20;26.20;99.90
21306;DHT22;10812;51.838;5.838;2023-07-28T15:03:49;26.10;99.90
21306;DHT22;10812;51.838;5.838;2023-07-28T15:06:18;26.10;99.90
21306;DHT22;10812;51.838;5.838;2023-07-28T15:08:46;26.00;99.90
21306;DHT22;10812;51.838;5.838;2023-07-28T15:11:14;26.00;99.90
21306;DHT22;10812;51.838;5.838;2023-07-28T15:13:44;26.00;99.90
21306;DHT22;10812;51.838;5.838;2023-07-28T15:16:12;25.70;99.90
21306;DHT22;10812;51.838;5.838;2023-07-28T15:18:40;25.30;99.90
21306;DHT22;10812;51.838;5.838;2023-07-28T15:21:13;25.30;99.90
21306;DHT22;10812;51.838;5.838;2023-07-28T15:23:41;25.20;99.90
21306;DHT22;10812;51.838;5.838;2023-07-28T15:26:09;25.40;99.90
21306;DHT22;10812;51.838;5.838;2023-07-28T15:28:37;25.60;99.90
21306;DHT22;10812;51.838;5.838;2023-07-28T15:31:05;25.90;99.90
21306;DHT22;10812;51.838;5.838;2023-07-28T15:33:33;25.90;99.90
21306;DHT22;10812;51.838;5.838;2023-07-28T15:36:01;25.90;99.90
21306;DHT22;10812;51.838;5.838;2023-07-28T15:38:31;25.80;99.90
21306;DHT22;10812;51.838;5.838;2023-07-28T15:40:59;25.80;99.90
21306;DHT22;10812;51.838;5.838;2023-07-28T15:43:27;25.70;99.90
21306;DHT22;10812;51.838;5.838;2023-07-28T15:45:55;25.70;99.90
21306;DHT22;10812;51.838;5.838;2023-07-28T15:48:23;25.60;99.90
21306;DHT22;10812;51.838;5.838;2023-07-28T15:50:51;25.60;99.90
21306;DHT22;10812;51.838;5.838;2023-07-28T15:53:19;25.60;99.90
21306;DHT22;10812;51.838;5.838;2023-07-28T15:55:49;25.50;99.90
21306;DHT22;10812;51.838;5.838;2023-07-28T15:58:17;25.50;99.90
21306;DHT22;10812;51.838;5.838;2023-07-28T16:00:45;25.50;99.90
21306;DHT22;10812;51.838;5.838;2023-07-28T16:03:13;25.50;99.90
21306;DHT22;10812;51.838;5.838;2023-07-28T16:05:41;25.40;99.90
21306;DHT22;10812;51.838;5.838;2023-07-28T16:08:11;25.40;99.90
21306;DHT22;10812;51.838;5.838;2023-07-28T16:10:39;25.30;99.90
21306;DHT22;10812;51.838;5.838;2023-07-28T16:13:08;25.10;99.90
21306;DHT22;10812;51.838;5.838;2023-07-28T16:15:37;25.00;99.90
21306;DHT22;10812;51.838;5.838;2023-07-28T16:18:05;24.80;99.90
21306;DHT22;10812;51.838;5.838;2023-07-28T16:20:35;24.70;99.90
21306;DHT22;10812;51.838;5.838;2023-07-28T16:23:03;24.50;99.90
21306;DHT22;10812;51.838;5.838;2023-07-28T16:25:31;24.40;99.90
21306;DHT22;10812;51.838;5.838;2023-07-28T16:27:59;24.30;99.90
21306;DHT22;10812;51.838;5.838;2023-07-28T16:30:29;24.30;99.90
21306;DHT22;10812;51.838;5.838;2023-07-28T16:32:57;24.20;99.90
21306;DHT22;10812;51.838;5.838;2023-07-28T16:35:25;24.10;99.90
21306;DHT22;10812;51.838;5.838;2023-07-28T16:37:53;24.20;99.90
21306;DHT22;10812;51.838;5.838;2023-07-28T16:40:21;24.20;99.90